Time;durP1;ratioP1;P1;durP2;ratioP2;P2;SDS_P1;SDS_P2;PMS_P1;PMS_P2;Temp;Humidity;BMP_temperature;BMP_pressure;BME280_temperature;BME280_humidity;BME280_pressure;Samples;Min_cycle;Max_cycle;Signal;HPM_P1;HPM_P2
2022/07/16 00:03:32;;;;;;;9.13;6.90;;;;;;;19.40;73.16;98851.34;4974945;28;20247;-86
2022/07/16 00:05:58;;;;;;;10.77;6.63;;;;;;;20.49;70.89;98997.66;4974827;28;20168;-86
2022/07/16 00:08:23;;;;;;;9.90;6.70;;;;;;;21.28;70.38;99126.16;4974618;28;20555;-85
2022/07/16 00:10:49;;;;;;;12.17;6.87;;;;;;;20.41;70.86;99013.97;4974484;28;20164;-86
2022/07/16 00:13:14;;;;;;;13.37;7.03;;;;;;;20.39;70.92;98992.56;4974761;28;20226;-87
2022/07/16 00:15:39;;;;;;;10.03;6.60;;;;;;;21.22;70.41;99128.75;4974345;28;20179;-86
2022/07/16 00:20:49;;;;;;;8.87;5.97;;;;;;;19.36;69.66;98835.91;4974824;28;20719;-87
2022/07/16 00:23:15;;;;;;;8.67;6.40;;;;;;;20.42;69.07;98995.97;4974284;28;20168;-87
2022/07/16 00:25:40;;;;;;;8.27;5.83;;;;;;;19.99;69.15;98927.50;4974193;28;20164;-86
2022/07/16 00:28:07;;;;;;;7.83;6.00;;;;;;;19.98;68.88;98929.19;4974579;28;20173;-86
2022/07/16 00:30:33;;;;;;;12.00;6.43;;;;;;;20.22;67.51;98930.00;4975479;28;20161;-87
2022/07/16 00:32:58;;;;;;;6.87;5.70;;;;;;;18.71;66.63;98681.97;4975290;28;20598;-85
2022/07/16 00:35:24;;;;;;;8.27;5.80;;;;;;;19.77;66.17;98818.78;4974630;28;20174;-86
2022/07/16 00:37:49;;;;;;;9.37;5.80;;;;;;;20.19;66.05;98888.91;4975373;28;20191;-85
2022/07/16 00:40:15;;;;;;;8.40;5.93;;;;;;;19.05;66.09;98729.00;4973069;28;20192;-87
2022/07/16 00:42:40;;;;;;;6.00;5.33;;;;;;;20.70;66.98;99007.06;4974173;28;20250;-86
2022/07/16 00:45:07;;;;;;;6.13;5.43;;;;;;;20.19;66.03;98887.16;4989292;28;20318;-86
2022/07/16 00:47:33;;;;;;;8.70;5.60;;;;;;;19.82;64.97;98811.91;4974488;28;20164;-85
2022/07/16 00:49:58;;;;;;;9.17;6.00;;;;;;;21.82;64.73;99149.94;4974340;28;20255;-86
2022/07/16 00:52:24;;;;;;;7.23;5.63;;;;;;;21.38;64.03;99060.84;4974143;28;20508;-86
2022/07/16 00:54:50;;;;;;;8.43;6.13;;;;;;;21.95;64.69;99151.66;4974057;28;20168;-88
2022/07/16 00:57:17;;;;;;;9.43;5.90;;;;;;;19.94;64.92;98854.69;4974061;28;20234;-86
2022/07/16 00:59:42;;;;;;;7.80;5.40;;;;;;;20.76;63.91;98960.72;4973854;28;20596;-86
2022/07/16 01:02:08;;;;;;;7.30;5.40;;;;;;;21.04;63.93;99020.66;4973877;28;20231;-88
2022/07/16 01:04:34;;;;;;;8.10;5.37;;;;;;;20.58;63.76;98951.34;4974542;28;20516;-86
2022/07/16 01:07:00;;;;;;;5.67;5.07;;;;;;;19.91;63.45;98821.31;4977603;28;20168;-86
2022/07/16 01:09:26;;;;;;;6.43;5.10;;;;;;;20.13;62.91;98864.06;4986349;28;20168;-84
2022/07/16 01:11:53;;;;;;;6.93;5.50;;;;;;;19.68;63.19;98787.97;5000004;28;20672;-85
2022/07/16 01:14:19;;;;;;;7.47;5.30;;;;;;;19.52;64.08;98805.97;4981579;28;20172;-85
2022/07/16 01:16:45;;;;;;;8.50;5.07;;;;;;;19.50;63.70;98807.69;4974679;28;20195;-86
2022/07/16 01:19:12;;;;;;;6.63;5.00;;;;;;;21.63;63.88;99142.31;4974797;28;20609;-85
2022/07/16 01:21:38;;;;;;;8.40;5.77;;;;;;;20.41;64.32;98955.69;4973973;28;20215;-85
2022/07/16 01:24:04;;;;;;;6.70;5.20;;;;;;;20.33;64.99;98930.84;4973808;28;20622;-85
2022/07/16 01:26:29;;;;;;;8.27;5.27;;;;;;;20.91;64.76;99026.69;4973927;28;20279;-86
2022/07/16 01:28:55;;;;;;;7.73;5.30;;;;;;;21.21;64.43;99064.38;4973533;28;20207;-86
2022/07/16 01:31:20;;;;;;;6.33;5.10;;;;;;;19.59;64.60;98807.66;4973579;28;20251;-87
2022/07/16 01:34:24;;;;;;;6.00;5.40;;;;;;;20.46;65.06;99013.09;4973659;28;20164;-86
2022/07/16 01:36:31;;;;;;;5.53;4.93;;;;;;;20.44;66.85;99014.81;4973258;28;20221;-87
2022/07/16 01:38:57;;;;;;;7.23;5.23;;;;;;;19.01;66.78;98782.00;4973517;28;20324;-85
2022/07/16 01:41:22;;;;;;;8.97;5.70;;;;;;;20.21;68.31;99034.56;4973229;28;20747;-85
2022/07/16 01:43:48;;;;;;;8.03;5.47;;;;;;;19.04;68.70;98835.88;4973889;28;20633;-87
2022/07/16 01:46:13;;;;;;;6.53;5.40;;;;;;;19.38;69.01;98924.06;4973656;28;20202;-86
2022/07/16 01:48:38;;;;;;;6.13;5.50;;;;;;;20.61;70.00;99140.84;4973458;28;20602;-87
2022/07/16 01:51:04;;;;;;;6.00;5.27;;;;;;;20.65;69.09;99137.41;4973473;28;20168;-85
2022/07/16 01:53:30;;;;;;;9.10;5.67;;;;;;;20.59;69.01;99130.56;4972644;28;20184;-85
2022/07/16 01:55:56;;;;;;;7.60;5.23;;;;;;;19.81;69.71;99009.69;4973324;28;20211;-85
2022/07/16 01:58:22;;;;;;;7.50;5.27;;;;;;;17.87;68.92;98678.44;4973299;28;20199;-86
2022/07/16 02:00:48;;;;;;;6.67;5.80;;;;;;;19.14;67.65;98870.13;4972773;28;20244;-87
2022/07/16 02:03:14;;;;;;;7.67;5.93;;;;;;;18.34;67.17;98714.41;4972978;28;20239;-87
2022/07/16 02:05:40;;;;;;;6.83;6.10;;;;;;;20.99;66.77;99143.34;4972905;28;20172;-85
2022/07/16 02:08:07;;;;;;;8.27;5.90;;;;;;;19.76;66.62;98950.63;4972755;28;20164;-87
2022/07/16 02:10:33;;;;;;;8.40;5.97;;;;;;;21.03;66.62;99137.34;4972775;28;20168;-87
2022/07/16 02:12:59;;;;;;;6.90;6.20;;;;;;;18.22;66.67;98709.25;4972032;28;20176;-85
2022/07/16 02:15:24;;;;;;;7.77;5.67;;;;;;;20.94;67.32;99140.78;4972804;28;20191;-86
2022/07/16 02:17:50;;;;;;;8.73;5.80;;;;;;;19.99;67.35;98999.44;4973272;28;20644;-86
2022/07/16 02:20:15;;;;;;;7.73;5.90;;;;;;;19.04;66.52;98787.16;4988739;28;20210;-86
2022/07/16 02:22:41;;;;;;;7.10;5.40;;;;;;;19.16;66.38;98817.09;4976500;28;20169;-86
2022/07/16 02:25:08;;;;;;;7.77;5.57;;;;;;;18.22;66.49;98678.50;4976805;28;20172;-86
2022/07/16 02:27:34;;;;;;;7.50;5.70;;;;;;;19.34;66.19;98871.84;4991374;28;20264;-85
2022/07/16 02:29:59;;;;;;;8.23;5.60;;;;;;;20.09;66.63;99013.13;4976922;28;20232;-88
2022/07/16 02:32:25;;;;;;;7.50;5.53;;;;;;;19.75;66.38;98982.28;4991579;28;20649;-86
2022/07/16 02:34:51;;;;;;;6.17;5.23;;;;;;;20.65;66.37;99121.13;4976501;28;20175;-86
2022/07/16 02:37:17;;;;;;;7.97;4.97;;;;;;;20.88;65.86;99150.22;4991088;28;20256;-87
2022/07/16 02:39:42;;;;;;;8.17;5.60;;;;;;;18.95;65.90;98817.09;4976331;28;20600;-87
2022/07/16 02:42:07;;;;;;;7.90;5.70;;;;;;;19.57;66.37;98925.81;4976394;28;20200;-88
2022/07/16 02:44:33;;;;;;;8.13;6.40;;;;;;;19.09;66.66;98841.88;4976080;28;20168;-88
2022/07/16 02:46:59;;;;;;;6.20;5.53;;;;;;;19.70;66.38;98934.34;4976545;28;20183;-86
2022/07/16 02:49:25;;;;;;;7.33;5.53;;;;;;;20.14;66.01;99013.97;4976529;28;20223;-86
2022/07/16 02:51:50;;;;;;;6.67;5.47;;;;;;;20.88;66.28;99142.50;4975181;28;20179;-87
2022/07/16 02:54:16;;;;;;;7.80;5.70;;;;;;;19.29;66.08;98876.13;4976669;28;20219;-87
2022/07/16 02:56:41;;;;;;;11.30;5.77;;;;;;;18.26;66.64;98741.72;4987552;28;20172;-86
2022/07/16 02:59:07;;;;;;;9.40;5.30;;;;;;;18.10;66.57;98707.50;5000416;28;20195;-86
2022/07/16 03:01:32;;;;;;;6.63;5.87;;;;;;;20.16;65.87;99068.84;5007264;28;20363;-86
2022/07/16 03:03:57;;;;;;;6.40;5.50;;;;;;;19.94;65.41;99012.25;4985635;28;20176;-88
2022/07/16 03:06:23;;;;;;;8.40;5.87;;;;;;;19.28;65.82;98897.50;4979499;28;20244;-86
2022/07/16 03:08:50;;;;;;;7.80;5.70;;;;;;;19.59;66.03;98998.56;4976677;28;20259;-86
2022/07/16 03:11:16;;;;;;;7.07;5.70;;;;;;;20.42;67.37;99152.84;4991357;28;20328;-88
2022/07/16 03:13:42;;;;;;;6.43;5.73;;;;;;;18.56;67.73;98851.19;4977002;28;20727;-87
2022/07/16 03:16:07;;;;;;;7.77;5.63;;;;;;;18.37;67.65;98823.75;4975264;28;20199;-86
2022/07/16 03:18:33;;;;;;;10.73;6.10;;;;;;;19.46;67.26;98971.16;4976307;28;20593;-88
2022/07/16 03:20:58;;;;;;;10.00;6.70;;;;;;;18.54;67.42;98845.22;4991325;28;20199;-86
2022/07/16 03:23:24;;;;;;;9.03;6.00;;;;;;;19.70;67.16;99008.84;4991745;28;20180;-87
2022/07/16 03:25:49;;;;;;;10.97;6.30;;;;;;;18.13;67.05;98734.84;4975960;28;20632;-86
2022/07/16 03:28:15;;;;;;;7.43;6.27;;;;;;;19.42;66.71;98941.19;4975841;28;20302;-85
2022/07/16 03:30:40;;;;;;;8.80;7.03;;;;;;;18.80;66.52;98834.16;4976609;28;20179;-88
2022/07/16 03:33:06;;;;;;;13.30;7.07;;;;;;;20.81;66.54;99169.13;4975275;28;20198;-85
2022/07/16 03:35:32;;;;;;;11.57;6.70;;;;;;;19.73;66.94;98985.72;4975827;28;20165;-87
2022/07/16 03:40:41;;;;;;;8.73;6.17;;;;;;;19.60;66.97;98942.91;4975492;28;20214;-87
2022/07/16 03:43:06;;;;;;;8.90;6.53;;;;;;;18.40;66.63;98728.94;4975525;28;20172;-88
2022/07/16 03:45:42;;;;;;;10.37;6.53;;;;;;;19.28;66.86;98871.81;4976072;28;20248;-86
2022/07/16 03:48:08;;;;;;;12.27;7.13;;;;;;;19.16;67.29;98841.03;4975209;28;20175;-88
2022/07/16 03:50:33;;;;;;;9.87;6.57;;;;;;;18.07;67.66;98651.19;4974696;28;20551;-87
2022/07/16 03:52:59;;;;;;;12.60;6.70;;;;;;;19.19;66.84;98820.50;4974288;28;20637;-86
2022/07/16 03:55:24;;;;;;;13.93;6.63;;;;;;;20.78;66.13;99097.09;4974535;28;20168;-86
2022/07/16 03:57:49;;;;;;;10.93;6.73;;;;;;;20.62;65.42;99074.81;4974297;28;20168;-87
2022/07/16 04:00:15;;;;;;;8.93;6.20;;;;;;;19.38;65.05;98859.91;4973945;28;20176;-86
2022/07/16 04:02:40;;;;;;;9.93;6.07;;;;;;;21.18;65.04;99169.09;4989083;28;20270;-87
2022/07/16 04:05:06;;;;;;;9.67;6.50;;;;;;;19.21;64.86;98811.09;4973318;28;20275;-86
2022/07/16 04:07:32;;;;;;;8.13;5.93;;;;;;;19.76;65.71;98954.91;4973992;28;20645;-86
2022/07/16 04:09:58;;;;;;;10.40;6.23;;;;;;;20.49;66.00;99064.53;4974188;28;20176;-87
2022/07/16 04:12:23;;;;;;;11.13;6.30;;;;;;;21.34;65.06;99190.53;4974181;28;20177;-87
2022/07/16 04:14:52;;;;;;;13.87;6.83;;;;;;;18.73;66.98;98809.34;4990168;28;20179;-86
2022/07/16 04:17:18;;;;;;;9.60;5.63;;;;;;;19.04;67.60;98876.06;4974953;28;20644;-88
2022/07/16 04:19:44;;;;;;;6.33;5.70;;;;;;;19.10;68.55;98876.97;4989704;28;20255;-87
2022/07/16 04:22:09;;;;;;;8.90;5.33;;;;;;;18.56;68.16;98757.19;4974029;28;20407;-86
2022/07/16 04:24:35;;;;;;;6.40;5.70;;;;;;;20.91;69.92;99197.41;4974289;28;20267;-86
2022/07/16 04:27:00;;;;;;;7.57;5.80;;;;;;;18.99;70.10;98903.44;4974889;28;20637;-86
2022/07/16 04:29:26;;;;;;;7.57;5.73;;;;;;;17.74;71.29;98704.84;4974980;28;20171;-85
2022/07/16 04:31:51;;;;;;;7.77;5.80;;;;;;;18.06;72.07;98738.25;4986951;28;20172;-86
2022/07/16 04:34:17;;;;;;;8.30;5.43;;;;;;;20.39;70.14;99091.13;4976151;28;20164;-87
2022/07/16 04:36:43;;;;;;;8.97;5.40;;;;;;;20.49;68.69;99041.38;4975339;28;20176;-85
2022/07/16 04:39:08;;;;;;;8.20;5.70;;;;;;;20.97;67.20;99096.19;4974164;28;20258;-86
2022/07/16 04:41:33;;;;;;;13.13;8.27;;;;;;;18.81;66.02;98687.13;4973464;28;20242;-86
2022/07/16 04:43:59;;;;;;;28.40;22.07;;;;;;;22.18;65.57;99222.81;4972621;28;20697;-85
2022/07/16 04:46:24;;;;;;;16.87;13.23;;;;;;;21.85;64.45;99131.88;4974024;28;20220;-86
2022/07/16 04:48:50;;;;;;;12.30;7.87;;;;;;;21.45;64.98;99097.75;4973484;28;20187;-87
2022/07/16 04:51:16;;;;;;;12.40;6.97;;;;;;;22.39;63.90;99215.84;4973535;28;21218;-87
2022/07/16 04:53:41;;;;;;;8.33;5.47;;;;;;;21.55;65.02;99123.47;4975027;28;20173;-87
2022/07/16 04:56:07;;;;;;;8.17;5.60;;;;;;;20.80;65.10;98946.97;4973362;28;20183;-86
2022/07/16 04:58:32;;;;;;;11.23;5.30;;;;;;;21.37;65.67;99125.28;4972965;28;20172;-87
2022/07/16 05:00:57;;;;;;;7.40;5.20;;;;;;;19.75;65.61;98835.06;4973865;28;20211;-85
2022/07/16 05:03:23;;;;;;;8.53;5.07;;;;;;;20.14;63.98;98865.75;4973358;28;20184;-85
2022/07/16 05:05:49;;;;;;;5.80;5.17;;;;;;;20.32;62.62;98858.03;4973830;28;20592;-86
2022/07/16 05:08:15;;;;;;;8.90;5.53;;;;;;;19.55;61.98;98762.31;4974377;28;20192;-88
2022/07/16 05:10:40;;;;;;;7.20;5.33;;;;;;;21.31;60.96;99025.72;4976734;28;20227;-87
2022/07/16 05:13:07;;;;;;;7.10;5.27;;;;;;;20.92;61.17;98972.66;4988310;28;20179;-86
2022/07/16 05:15:33;;;;;;;6.43;5.10;;;;;;;20.07;60.68;98792.13;4973558;28;20766;-87
2022/07/16 05:17:59;;;;;;;7.53;5.30;;;;;;;22.61;59.98;99188.97;4973211;28;20176;-87
2022/07/16 05:20:24;;;;;;;6.97;5.40;;;;;;;21.19;59.25;98930.50;4973363;28;20262;-88
2022/07/16 05:22:50;;;;;;;7.57;5.20;;;;;;;20.89;60.00;98886.91;4974069;28;20256;-86
2022/07/16 05:25:15;;;;;;;9.63;5.83;;;;;;;21.06;58.77;98864.50;4973900;28;20168;-86
2022/07/16 05:27:41;;;;;;;7.83;5.30;;;;;;;20.93;59.77;98829.41;4971873;28;20214;-86
2022/07/16 05:30:07;;;;;;;10.83;6.23;;;;;;;23.27;59.89;99215.94;4973427;28;20172;-86
2022/07/16 05:32:32;;;;;;;12.17;5.80;;;;;;;23.55;59.38;99217.41;4972942;28;20180;-88
2022/07/16 05:34:58;;;;;;;11.27;6.10;;;;;;;22.99;59.50;99108.66;4973153;28;20172;-89
2022/07/16 05:37:23;;;;;;;11.17;5.90;;;;;;;23.78;59.12;99220.59;4973083;28;20176;-88
2022/07/16 05:39:49;;;;;;;8.27;5.60;;;;;;;21.96;58.59;98898.13;4971792;28;20220;-86
2022/07/16 05:42:14;;;;;;;9.83;6.40;;;;;;;22.80;57.41;99018.47;4973270;28;20269;-87
2022/07/16 05:44:40;;;;;;;11.10;6.83;;;;;;;23.57;54.69;99107.09;4973675;28;20174;-86
2022/07/16 05:47:05;;;;;;;8.63;6.30;;;;;;;22.42;54.43;98895.91;4973371;28;20179;-88
2022/07/16 05:49:31;;;;;;;8.77;6.30;;;;;;;21.90;54.47;98803.69;4971759;28;20187;-87
2022/07/16 05:51:57;;;;;;;11.63;7.47;;;;;;;21.99;53.67;98733.13;4973696;28;20164;-88
2022/07/16 05:54:22;;;;;;;14.20;6.43;;;;;;;23.87;53.50;99049.78;4973326;28;20652;-87
2022/07/16 05:56:48;;;;;;;10.77;6.37;;;;;;;24.77;53.02;99170.84;4976892;28;20176;-87
2022/07/16 05:59:13;;;;;;;13.00;6.37;;;;;;;23.75;53.37;98971.56;4977151;28;20308;-87
2022/07/16 06:01:39;;;;;;;11.77;5.83;;;;;;;24.73;52.49;99126.91;4976600;28;20234;-86
2022/07/16 06:04:04;;;;;;;9.40;6.60;;;;;;;24.61;52.65;99066.69;4976707;28;20172;-85
2022/07/16 06:06:30;;;;;;;10.63;6.20;;;;;;;25.06;51.43;99085.72;4977680;28;20179;-86
2022/07/16 06:08:55;;;;;;;8.80;5.77;;;;;;;24.20;50.75;98980.34;4980944;28;20173;-87
2022/07/16 06:11:20;;;;;;;8.87;5.87;;;;;;;25.83;50.36;99171.44;4978078;28;20168;-89
2022/07/16 06:13:46;;;;;;;8.13;5.83;;;;;;;24.30;49.74;98897.34;4978747;28;20534;-87
2022/07/16 06:16:11;;;;;;;6.60;5.00;;;;;;;25.11;47.85;99016.53;4978313;28;20656;-86
2022/07/16 06:18:37;;;;;;;7.23;5.70;;;;;;;26.09;47.29;99098.22;4978178;28;20179;-87
2022/07/16 06:21:02;;;;;;;6.97;5.17;;;;;;;24.57;45.99;98813.94;4976832;28;20202;-86
2022/07/16 06:23:28;;;;;;;6.13;5.27;;;;;;;25.11;44.28;98899.94;4977292;28;20615;-87
2022/07/16 06:25:53;;;;;;;8.63;4.53;;;;;;;25.39;43.63;98979.66;4977311;28;20191;-87
2022/07/16 06:28:19;;;;;;;7.47;4.47;;;;;;;25.57;43.30;98976.69;4979399;28;20681;-88
2022/07/16 06:30:44;;;;;;;8.30;4.53;;;;;;;25.40;42.73;98924.34;4977264;28;20172;-87
2022/07/16 06:33:10;;;;;;;6.88;5.25;;;;;;;27.41;42.71;99192.72;4977938;28;20176;-87
2022/07/16 06:35:36;;;;;;;6.93;5.25;;;;;;;25.49;43.25;98859.34;4992182;28;20176;-85
2022/07/16 06:38:04;;;;;;;7.00;4.90;;;;;;;24.79;42.72;98722.84;4977323;28;20162;-86
2022/07/16 06:40:30;;;;;;;7.90;4.50;;;;;;;25.88;41.09;98917.13;4977400;28;20193;-87
2022/07/16 06:42:56;;;;;;;7.40;4.90;;;;;;;26.85;42.04;99077.28;4976101;28;20277;-88
2022/07/16 06:45:22;;;;;;;10.20;4.65;;;;;;;26.78;41.43;98996.97;4975974;28;20196;-87
2022/07/16 06:47:48;;;;;;;7.05;4.75;;;;;;;27.11;40.40;98970.00;4975827;28;20215;-86
2022/07/16 06:50:13;;;;;;;9.85;4.80;;;;;;;27.08;40.29;98959.69;4990826;28;20179;-87
2022/07/16 06:52:39;;;;;;;8.63;4.90;;;;;;;28.57;40.94;99174.47;4975906;28;20175;-84
2022/07/16 06:55:05;;;;;;;7.43;4.70;;;;;;;27.61;40.20;98959.81;4990577;28;20240;-88
2022/07/16 06:57:31;;;;;;;6.78;4.90;;;;;;;28.99;40.06;99120.09;4975773;28;20194;-86
2022/07/16 06:59:56;;;;;;;6.75;4.90;;;;;;;28.94;40.84;99088.13;4975018;28;20315;-87
2022/07/16 07:02:22;;;;;;;6.57;4.32;;;;;;;29.33;39.20;99182.38;4975651;28;20229;-87
2022/07/16 07:04:47;;;;;;;6.43;4.07;;;;;;;28.49;39.17;99041.03;4987985;28;20151;-86
2022/07/16 07:07:13;;;;;;;5.95;3.95;;;;;;;27.76;37.40;98876.06;4998747;28;20168;-86
2022/07/16 07:09:38;;;;;;;4.40;3.83;;;;;;;28.39;36.93;98941.53;5002961;28;20186;-86
2022/07/16 07:12:04;;;;;;;4.97;3.70;;;;;;;29.64;35.62;99094.25;4983799;28;20231;-87
2022/07/16 07:14:30;;;;;;;6.10;3.67;;;;;;;29.27;35.79;99029.56;4979495;28;20179;-87
2022/07/16 07:16:55;;;;;;;6.40;3.50;;;;;;;29.46;35.40;99087.09;4979009;28;20774;-85
2022/07/16 07:19:21;;;;;;;8.43;3.83;;;;;;;27.69;35.89;98805.16;4992987;28;20715;-87
2022/07/16 07:21:46;;;;;;;4.47;3.67;;;;;;;29.67;34.72;99089.72;4977309;28;20230;-86
2022/07/16 07:24:11;;;;;;;6.75;3.67;;;;;;;29.55;34.83;99082.41;4976297;28;20171;-86
2022/07/16 07:26:37;;;;;;;3.90;3.53;;;;;;;27.74;34.97;98816.28;4976337;28;20555;-87
2022/07/16 07:29:02;;;;;;;5.68;4.10;;;;;;;30.37;35.14;99181.06;4976560;28;20173;-86
2022/07/16 07:31:28;;;;;;;4.57;3.70;;;;;;;30.51;35.29;99181.34;4975572;28;20189;-85
2022/07/16 07:33:53;;;;;;;5.57;4.32;;;;;;;29.13;35.22;98953.56;4975670;28;20163;-85
2022/07/16 07:36:19;;;;;;;8.27;4.82;;;;;;;30.44;35.05;99182.50;4990770;28;20646;-86
2022/07/16 07:38:44;;;;;;;4.70;3.60;;;;;;;29.90;35.80;99106.28;4974154;28;20572;-87
2022/07/16 07:41:10;;;;;;;4.95;3.35;;;;;;;29.48;35.10;98999.19;4975215;28;20198;-88
2022/07/16 07:43:36;;;;;;;5.40;3.55;;;;;;;28.05;35.16;98706.75;4975708;28;20178;-87
2022/07/16 07:46:01;;;;;;;5.28;3.90;;;;;;;29.70;34.99;98968.72;4977907;28;20238;-89
2022/07/16 07:48:26;;;;;;;6.38;3.92;;;;;;;29.77;34.94;98937.09;4979806;28;20168;-88
2022/07/16 07:50:52;;;;;;;8.25;5.15;;;;;;;28.60;34.28;98750.56;4975598;28;20169;-87
2022/07/16 07:53:17;;;;;;;6.18;4.60;;;;;;;31.38;34.40;99116.56;4977401;28;20631;-86
2022/07/16 07:55:43;;;;;;;6.40;4.95;;;;;;;29.61;34.24;98849.91;4979682;28;20167;-87
2022/07/16 07:58:09;;;;;;;5.30;4.55;;;;;;;30.09;34.17;98961.03;4981456;28;20698;-86
2022/07/16 08:00:35;;;;;;;6.00;5.30;;;;;;;31.56;34.86;99193.44;4980388;28;20213;-86
2022/07/16 08:03:01;;;;;;;6.70;4.80;;;;;;;30.69;34.97;99015.03;4977117;28;20223;-88
2022/07/16 08:05:26;;;;;;;7.55;5.20;;;;;;;31.40;34.64;99057.16;4975145;28;20179;-86
2022/07/16 08:07:52;;;;;;;6.28;4.47;;;;;;;30.95;34.16;98929.34;4990709;28;20187;-87
2022/07/16 08:10:18;;;;;;;4.85;4.25;;;;;;;31.81;34.75;99180.91;4975342;28;20262;-87
2022/07/16 08:12:45;;;;;;;4.30;3.85;;;;;;;30.69;34.97;98996.75;4975935;28;20171;-86
2022/07/16 08:15:11;;;;;;;7.72;3.90;;;;;;;30.68;34.58;98995.94;4975035;28;20202;-85
2022/07/16 08:17:37;;;;;;;6.18;3.83;;;;;;;30.58;33.48;98902.28;4975377;28;20176;-87
2022/07/16 08:20:04;;;;;;;6.70;3.95;;;;;;;30.89;33.10;98866.84;4975780;28;20175;-87
2022/07/16 08:22:30;;;;;;;4.70;3.80;;;;;;;30.47;33.08;98769.53;4989951;28;20235;-86
2022/07/16 08:27:39;;;;;;;4.88;3.70;;;;;;;31.41;32.34;98953.31;4975499;28;20262;-87
2022/07/16 08:30:05;;;;;;;7.13;3.70;;;;;;;30.94;31.76;98803.88;4976414;28;20622;-86
2022/07/16 08:32:31;;;;;;;5.15;3.83;;;;;;;32.26;31.64;98983.19;4975153;28;20180;-86
2022/07/16 08:34:56;;;;;;;6.63;3.90;;;;;;;32.28;32.02;98984.81;4975428;28;20296;-86
2022/07/16 08:37:33;;;;;;;5.07;3.65;;;;;;;30.98;31.81;98821.13;4975876;28;20176;-86
2022/07/16 08:39:59;;;;;;;5.22;3.63;;;;;;;31.58;32.39;98970.88;4975085;28;20564;-87
2022/07/16 08:42:26;;;;;;;6.07;3.80;;;;;;;30.83;31.40;98759.94;4975001;28;20200;-86
2022/07/16 08:44:52;;;;;;;5.45;3.72;;;;;;;32.89;30.85;98987.72;4975668;28;20168;-87
2022/07/16 08:47:18;;;;;;;4.35;3.60;;;;;;;31.98;30.68;98926.94;4976040;28;20175;-86
2022/07/16 08:49:46;;;;;;;4.75;3.45;;;;;;;32.49;30.06;98930.44;4976356;28;20191;-86
2022/07/16 08:52:12;;;;;;;6.70;3.60;;;;;;;32.42;30.27;98911.56;4975046;28;20251;-87
2022/07/16 08:54:39;;;;;;;5.97;3.50;;;;;;;32.58;30.11;98899.34;4975114;28;20248;-87
2022/07/16 08:57:05;;;;;;;7.93;3.70;;;;;;;33.78;29.95;99034.47;4975076;28;20171;-87
2022/07/16 08:59:31;;;;;;;4.47;3.40;;;;;;;34.49;27.62;99166.22;4974732;28;20259;-87
2022/07/16 09:01:56;;;;;;;3.97;3.40;;;;;;;32.43;29.17;98951.72;4974847;28;20250;-88
2022/07/16 09:04:22;;;;;;;5.65;3.78;;;;;;;31.75;29.48;98827.75;4990355;28;20192;-86
2022/07/16 09:06:49;;;;;;;7.25;4.13;;;;;;;31.78;29.26;98847.69;4989914;28;20677;-88
2022/07/16 09:09:14;;;;;;;5.70;4.03;;;;;;;33.68;29.38;99055.13;4990322;28;20176;-88
2022/07/16 09:11:40;;;;;;;6.90;4.80;;;;;;;35.04;28.74;99174.38;4975853;28;20183;-87
2022/07/16 09:14:10;;;;;;;5.05;3.90;;;;;;;34.94;27.96;99174.09;4975004;28;20226;-86
2022/07/16 09:16:38;;;;;;;3.67;3.38;;;;;;;32.79;28.00;98745.25;4975455;28;20172;-88
2022/07/16 09:19:15;;;;;;;4.88;3.63;;;;;;;33.37;27.84;98826.75;4976746;28;20215;-86
2022/07/16 09:22:01;;;;;;;6.20;3.80;;;;;;;35.38;27.44;99174.91;4975054;28;21018;-87
2022/07/16 09:24:54;;;;;;;4.93;3.92;;;;;;;34.11;28.44;99158.72;4976468;28;20176;-87
2022/07/16 09:27:25;;;;;;;6.00;3.70;;;;;;;34.91;27.97;99174.28;4971897;28;20210;-86
2022/07/16 09:29:58;;;;;;;4.25;3.85;;;;;;;34.99;27.43;99095.72;4971582;28;20196;-87
2022/07/16 09:32:39;;;;;;;6.45;4.00;;;;;;;34.79;28.17;99153.94;4956619;28;20311;-88
2022/07/16 09:35:15;;;;;;;6.72;4.07;;;;;;;35.18;28.23;99166.53;4957083;28;20178;-88
2022/07/16 09:37:52;;;;;;;6.20;4.40;;;;;;;34.76;28.95;99162.88;4972126;28;20219;-86
2022/07/16 09:40:42;;;;;;;5.10;4.70;;;;;;;34.63;28.38;99068.97;4973591;28;20525;-85
2022/07/16 09:43:13;;;;;;;5.68;4.50;;;;;;;35.34;28.19;99157.63;4971786;28;20179;-87
2022/07/16 09:45:40;;;;;;;5.32;4.80;;;;;;;33.09;28.22;98735.66;4971572;28;20200;-85
2022/07/16 09:48:27;;;;;;;8.82;5.10;;;;;;;34.86;28.64;99069.28;4955651;28;20180;-88
2022/07/16 09:50:55;;;;;;;5.00;4.50;;;;;;;34.94;27.82;99047.78;4975815;28;20179;-86
2022/07/16 09:53:23;;;;;;;9.93;5.10;;;;;;;35.56;28.53;99151.06;4965962;28;20176;-87
2022/07/16 09:55:54;;;;;;;6.70;5.20;;;;;;;35.75;28.00;99148.97;4973414;28;20266;-86
2022/07/16 09:58:20;;;;;;;7.13;5.13;;;;;;;33.70;28.00;98788.03;4971785;28;20196;-85
2022/07/16 10:00:45;;;;;;;5.35;4.40;;;;;;;35.93;27.68;99150.44;4971408;28;20238;-89
2022/07/16 10:03:11;;;;;;;8.73;5.25;;;;;;;35.45;28.04;99102.50;4956604;28;20664;-88
2022/07/16 10:05:37;;;;;;;6.70;4.50;;;;;;;33.69;28.05;98762.72;4974457;28;20658;-87
2022/07/16 10:08:02;;;;;;;6.47;4.60;;;;;;;36.22;27.55;99140.69;4973723;28;20168;-87
2022/07/16 10:10:28;;;;;;;7.45;4.63;;;;;;;34.56;28.08;98892.25;4973159;28;20196;-86
2022/07/16 10:12:53;;;;;;;5.68;4.50;;;;;;;33.64;27.35;98730.63;4973173;28;20164;-86
2022/07/16 10:15:20;;;;;;;5.78;4.82;;;;;;;34.56;28.00;98844.91;4973264;28;20169;-85
2022/07/16 10:17:46;;;;;;;4.70;4.30;;;;;;;35.15;27.50;98933.28;4971888;28;20176;-88
2022/07/16 10:20:17;;;;;;;5.15;4.72;;;;;;;36.49;27.34;99133.59;4973532;28;20180;-87
2022/07/16 10:22:47;;;;;;;5.15;4.53;;;;;;;34.63;27.01;98821.75;4972768;28;20176;-87
2022/07/16 10:25:19;;;;;;;4.70;4.20;;;;;;;34.68;27.01;98861.75;4972781;28;20203;-89
2022/07/16 10:27:45;;;;;;;4.75;4.30;;;;;;;33.65;27.76;98795.31;4972535;28;20172;-89
2022/07/16 10:30:19;;;;;;;6.40;4.57;;;;;;;36.00;27.89;99133.28;4972648;28;20660;-88
2022/07/16 10:33:02;;;;;;;9.27;4.50;;;;;;;36.33;27.33;99135.56;4987334;28;21283;-88
2022/07/16 10:35:45;;;;;;;5.75;4.68;;;;;;;36.35;26.84;99134.50;4972441;28;20166;-87
2022/07/16 10:38:24;;;;;;;4.68;4.20;;;;;;;36.22;26.88;99120.44;4972507;28;20251;-86
2022/07/16 10:41:13;;;;;;;5.97;4.35;;;;;;;36.52;26.53;99118.44;4972647;28;20624;-86
2022/07/16 10:43:40;;;;;;;6.18;4.40;;;;;;;36.21;26.60;99131.91;4976389;28;20641;-86
2022/07/16 10:46:08;;;;;;;4.70;4.30;;;;;;;35.39;26.90;99112.56;4975755;28;20805;-86
2022/07/16 10:48:36;;;;;;;5.78;3.95;;;;;;;35.89;26.65;99104.13;4975846;28;20218;-86
2022/07/16 10:51:12;;;;;;;4.97;3.58;;;;;;;36.23;26.16;99106.31;4990398;28;20168;-86
2022/07/16 10:54:02;;;;;;;4.22;3.80;;;;;;;36.41;26.14;99107.72;4997073;28;20191;-87
2022/07/16 10:56:34;;;;;;;5.85;4.20;;;;;;;36.44;26.81;99098.75;4984977;28;20168;-88
2022/07/16 10:59:04;;;;;;;5.82;4.18;;;;;;;35.16;26.47;98837.56;4980619;28;20168;-87
2022/07/16 11:01:30;;;;;;;6.90;4.20;;;;;;;34.80;25.66;98806.59;4975975;28;20254;-88
2022/07/16 11:03:55;;;;;;;4.63;4.00;;;;;;;36.89;26.17;99097.47;4975511;28;20621;-88
2022/07/16 11:06:21;;;;;;;4.53;3.83;;;;;;;36.81;25.32;99057.56;4975490;28;20171;-87
2022/07/16 11:08:57;;;;;;;4.95;3.80;;;;;;;35.22;25.66;98862.66;4975666;28;20183;-87
2022/07/16 11:11:22;;;;;;;7.88;4.38;;;;;;;34.53;26.70;98807.47;4975489;28;20216;-87
2022/07/16 11:13:52;;;;;;;6.22;3.90;;;;;;;35.38;26.42;98937.91;4976330;28;20278;-89
2022/07/16 11:16:17;;;;;;;4.93;3.80;;;;;;;36.58;26.19;99091.66;4990795;28;20172;-86
2022/07/16 11:18:42;;;;;;;6.53;3.47;;;;;;;35.34;25.67;98852.19;4975833;28;20168;-87
2022/07/16 11:21:09;;;;;;;7.03;3.83;;;;;;;36.62;26.34;99087.84;4975438;28;20196;-90
2022/07/16 11:23:58;;;;;;;6.75;4.10;;;;;;;36.35;25.65;98993.88;4977038;28;20184;-87
2022/07/16 11:26:24;;;;;;;6.20;4.07;;;;;;;36.10;25.86;98984.97;4978286;28;20222;-87
2022/07/16 11:28:58;;;;;;;5.35;3.70;;;;;;;36.95;25.62;99094.41;4977578;28;20601;-87
2022/07/16 11:31:29;;;;;;;6.78;3.95;;;;;;;36.20;26.80;98948.31;4975775;28;20238;-89
2022/07/16 11:34:03;;;;;;;6.70;4.13;;;;;;;36.12;26.00;99006.00;4976454;28;20218;-89
2022/07/16 11:36:31;;;;;;;6.05;4.00;;;;;;;36.87;25.81;99084.38;4990004;28;20167;-87
2022/07/16 11:39:08;;;;;;;4.47;4.10;;;;;;;37.19;25.43;99088.28;4975128;28;20648;-89
2022/07/16 11:41:35;;;;;;;26.42;23.60;;;;;;;36.86;24.85;98873.34;4974878;28;20195;-90